createdAt,value
2018-09-11T00:02:01.181Z,2.93
2018-09-11T00:04:28.845Z,3.33
2018-09-11T00:06:56.522Z,3.53
2018-09-11T00:09:24.244Z,3.60
2018-09-11T00:11:51.905Z,3.73
2018-09-11T00:14:19.608Z,2.97
2018-09-11T00:16:47.312Z,3.20
2018-09-11T00:19:15.032Z,3.27
2018-09-11T00:21:42.727Z,3.50
2018-09-11T00:24:10.451Z,3.90
2018-09-11T00:26:38.157Z,3.20
2018-09-11T00:29:05.930Z,3.50
2018-09-11T00:31:33.837Z,3.70
2018-09-11T00:34:01.689Z,3.47
2018-09-11T00:36:29.386Z,3.57
2018-09-11T00:38:57.091Z,4.07
2018-09-11T00:41:24.775Z,3.23
2018-09-11T00:43:52.605Z,3.90
2018-09-11T00:46:20.320Z,3.47
2018-09-11T00:48:48.061Z,3.37
2018-09-11T00:51:15.751Z,3.77
2018-09-11T00:53:43.453Z,3.27
2018-09-11T00:56:11.147Z,3.37
2018-09-11T00:58:38.846Z,3.63
2018-09-11T01:01:06.598Z,3.43
2018-09-11T01:03:34.258Z,3.57
2018-09-11T01:06:01.938Z,2.73
2018-09-11T01:08:29.682Z,3.27
2018-09-11T01:10:57.357Z,3.67
2018-09-11T01:13:25.026Z,3.50
2018-09-11T01:15:52.743Z,3.43
2018-09-11T01:18:20.416Z,3.33
2018-09-11T01:20:48.125Z,3.83
2018-09-11T01:23:15.830Z,3.50
2018-09-11T01:25:43.497Z,4.30
2018-09-11T01:28:11.154Z,3.47
2018-09-11T01:30:38.949Z,3.73
2018-09-11T01:33:06.646Z,3.53
2018-09-11T01:35:34.351Z,3.50
2018-09-11T01:38:02.080Z,3.50
2018-09-11T01:40:29.765Z,3.50
2018-09-11T01:42:57.434Z,3.50
2018-09-11T01:45:25.159Z,3.77
2018-09-11T01:47:52.825Z,3.50
2018-09-11T01:50:20.515Z,3.47
2018-09-11T01:52:48.217Z,3.90
2018-09-11T01:55:15.892Z,3.70
2018-09-11T01:57:43.563Z,3.93
2018-09-11T02:00:15.785Z,3.80
2018-09-11T02:02:43.491Z,3.67
2018-09-11T02:05:11.157Z,3.57
2018-09-11T02:07:39.122Z,3.83
2018-09-11T02:10:06.792Z,3.47
2018-09-11T02:12:34.461Z,3.57
2018-09-11T02:15:02.311Z,3.73
2018-09-11T02:17:30.157Z,3.70
2018-09-11T02:19:57.901Z,3.67
2018-09-11T02:22:25.624Z,4.43
2018-09-11T02:24:53.281Z,4.77
2018-09-11T02:27:20.929Z,3.33
2018-09-11T02:29:48.636Z,3.93
2018-09-11T02:32:16.390Z,3.83
2018-09-11T02:34:44.086Z,3.73
2018-09-11T02:37:11.902Z,3.90
2018-09-11T02:39:39.601Z,3.63
2018-09-11T02:42:07.286Z,3.73
2018-09-11T02:44:40.533Z,3.80
2018-09-11T02:47:08.655Z,4.07
2018-09-11T02:49:36.345Z,3.73
2018-09-11T02:52:04.201Z,3.50
2018-09-11T02:54:31.856Z,3.70
2018-09-11T02:56:59.529Z,3.63
2018-09-11T02:59:27.232Z,4.03
2018-09-11T03:01:54.938Z,3.63
2018-09-11T03:04:22.651Z,4.20
2018-09-11T03:06:50.358Z,3.93
2018-09-11T03:09:18.046Z,4.20
2018-09-11T03:11:45.723Z,3.93
2018-09-11T03:14:13.445Z,3.67
2018-09-11T03:16:41.138Z,3.93
2018-09-11T03:19:08.832Z,4.03
2018-09-11T03:21:36.526Z,3.77
2018-09-11T03:24:04.203Z,3.90
2018-09-11T03:26:31.890Z,3.73
2018-09-11T03:28:59.594Z,3.83
2018-09-11T03:31:27.259Z,4.10
2018-09-11T03:33:55.080Z,4.33
2018-09-11T03:36:22.785Z,3.93
2018-09-11T03:38:50.481Z,3.67
2018-09-11T03:41:18.171Z,4.40
2018-09-11T03:43:45.873Z,4.17
2018-09-11T03:46:13.538Z,4.47
2018-09-11T03:48:41.223Z,3.40
2018-09-11T03:51:08.943Z,3.60
2018-09-11T03:53:36.625Z,3.10
2018-09-11T03:56:04.294Z,3.90
2018-09-11T03:58:32.044Z,3.17
2018-09-11T04:00:59.751Z,3.40
2018-09-11T04:03:27.556Z,3.37
2018-09-11T04:05:55.270Z,3.50
2018-09-11T04:08:22.995Z,3.67
2018-09-11T04:10:50.687Z,3.20
2018-09-11T04:13:18.430Z,3.67
2018-09-11T04:15:46.112Z,3.60
2018-09-11T04:18:14.214Z,3.83
2018-09-11T04:20:41.919Z,2.87
2018-09-11T04:23:09.642Z,2.97
2018-09-11T04:25:37.336Z,3.07
2018-09-11T04:28:05.087Z,3.37
2018-09-11T04:30:32.821Z,3.23
2018-09-11T04:33:00.490Z,3.60
2018-09-11T04:35:28.219Z,3.23
2018-09-11T04:37:55.890Z,3.27
2018-09-11T04:40:23.553Z,3.97
2018-09-11T04:42:51.278Z,3.60
2018-09-11T04:45:18.962Z,4.33
2018-09-11T04:47:46.627Z,4.53
2018-09-11T04:50:14.355Z,3.87
2018-09-11T04:52:42.049Z,4.10
2018-09-11T04:55:09.775Z,3.37
2018-09-11T04:57:37.571Z,3.13
2018-09-11T05:00:05.334Z,3.07
2018-09-11T05:02:33.026Z,3.10
2018-09-11T05:05:00.754Z,3.50
2018-09-11T05:07:28.599Z,3.13
2018-09-11T05:09:56.298Z,3.03
2018-09-11T05:12:24.010Z,3.07
2018-09-11T05:14:51.721Z,2.90
2018-09-11T05:17:19.427Z,3.40
2018-09-11T05:19:47.150Z,3.33
2018-09-11T05:22:14.866Z,3.27
2018-09-11T05:24:42.558Z,3.27
2018-09-11T05:27:10.294Z,3.20
2018-09-11T05:29:37.974Z,3.57
2018-09-11T05:32:05.766Z,3.03
2018-09-11T05:34:33.474Z,3.10
2018-09-11T05:37:01.172Z,3.57
2018-09-11T05:39:28.855Z,2.97
2018-09-11T05:41:56.649Z,3.63
2018-09-11T05:44:24.342Z,3.73
2018-09-11T05:46:52.014Z,3.27
2018-09-11T05:49:19.727Z,3.63
2018-09-11T05:51:47.419Z,2.90
2018-09-11T05:54:15.221Z,3.30
2018-09-11T05:56:42.982Z,3.43
2018-09-11T05:59:10.682Z,3.43
2018-09-11T06:01:38.414Z,3.37
2018-09-11T06:04:06.230Z,2.97
2018-09-11T06:06:33.933Z,3.20
2018-09-11T06:09:01.612Z,3.00
2018-09-11T06:11:29.327Z,3.07
2018-09-11T06:13:57.014Z,2.93
2018-09-11T06:16:25.387Z,2.90
2018-09-11T06:18:53.085Z,3.33
2018-09-11T06:21:20.761Z,2.93
2018-09-11T06:23:48.466Z,3.50
2018-09-11T06:26:16.163Z,3.77
2018-09-11T06:28:43.863Z,3.43
2018-09-11T06:31:11.562Z,3.10
2018-09-11T06:33:39.251Z,3.27
2018-09-11T06:36:06.932Z,3.10
2018-09-11T06:38:34.633Z,3.20
2018-09-11T06:41:02.486Z,2.93
2018-09-11T06:43:30.202Z,3.50
2018-09-11T06:45:58.162Z,3.33
2018-09-11T06:48:25.929Z,3.13
2018-09-11T06:50:53.606Z,3.50
2018-09-11T06:53:22.120Z,3.27
2018-09-11T06:55:49.891Z,3.30
2018-09-11T06:58:17.590Z,2.97
2018-09-11T07:00:45.287Z,3.60
2018-09-11T07:03:13.011Z,3.80
2018-09-11T07:05:40.677Z,3.53
2018-09-11T07:08:08.374Z,3.33
2018-09-11T07:10:36.104Z,3.40
2018-09-11T07:13:03.795Z,3.53
2018-09-11T07:15:31.583Z,3.23
2018-09-11T07:17:59.333Z,2.93
2018-09-11T07:20:27.152Z,3.80
2018-09-11T07:22:54.734Z,3.70
2018-09-11T07:25:22.446Z,3.53
2018-09-11T07:27:50.118Z,3.40
2018-09-11T07:30:17.844Z,3.40
2018-09-11T07:32:45.521Z,3.63
2018-09-11T07:35:13.209Z,3.40
2018-09-11T07:37:40.897Z,3.27
2018-09-11T07:40:08.699Z,3.17
2018-09-11T07:42:36.383Z,3.10
2018-09-11T07:45:04.161Z,3.40
2018-09-11T07:47:31.880Z,3.17
2018-09-11T07:49:59.546Z,3.23
2018-09-11T07:52:27.242Z,3.30
2018-09-11T07:54:54.978Z,3.00
2018-09-11T07:57:22.719Z,3.33
2018-09-11T07:59:50.446Z,3.13
2018-09-11T08:02:18.186Z,3.27
2018-09-11T08:04:45.905Z,3.00
2018-09-11T08:07:13.609Z,2.73
2018-09-11T08:09:41.404Z,3.33
2018-09-11T08:12:09.152Z,3.07
2018-09-11T08:14:36.891Z,3.63
2018-09-11T08:17:04.744Z,3.10
2018-09-11T08:19:32.542Z,3.37
2018-09-11T08:22:00.249Z,3.00
2018-09-11T08:24:28.032Z,3.13
2018-09-11T08:26:55.734Z,2.77
2018-09-11T08:29:23.571Z,2.97
2018-09-11T08:31:51.280Z,3.20
2018-09-11T08:34:18.964Z,3.13
2018-09-11T08:36:46.839Z,3.47
2018-09-11T08:39:14.695Z,3.43
2018-09-11T08:41:42.451Z,3.17
2018-09-11T08:44:10.327Z,3.77
2018-09-11T08:46:38.241Z,3.40
2018-09-11T08:49:06.481Z,3.40
2018-09-11T08:51:34.280Z,3.17
2018-09-11T08:54:02.206Z,3.93
2018-09-11T08:56:30.046Z,3.27
2018-09-11T08:58:57.910Z,3.07
2018-09-11T09:01:25.745Z,3.03
2018-09-11T09:03:53.476Z,3.50
2018-09-11T09:06:21.138Z,3.37
2018-09-11T09:08:48.902Z,3.10
2018-09-11T09:11:16.695Z,2.87
2018-09-11T09:13:44.401Z,2.83
2018-09-11T09:16:12.223Z,3.30
2018-09-11T09:18:39.967Z,3.17
2018-09-11T09:21:07.644Z,3.10
2018-09-11T09:23:35.341Z,3.60
2018-09-11T09:26:03.054Z,3.20
2018-09-11T09:28:30.729Z,2.93
2018-09-11T09:30:58.450Z,3.40
2018-09-11T09:33:26.123Z,3.03
2018-09-11T09:35:53.807Z,3.20
2018-09-11T09:38:21.505Z,3.20
2018-09-11T09:40:49.204Z,2.73
2018-09-11T09:43:16.904Z,2.90
2018-09-11T09:45:44.615Z,3.00
2018-09-11T09:48:12.298Z,3.10
2018-09-11T09:50:40.039Z,3.43
2018-09-11T09:53:07.765Z,3.10
2018-09-11T09:55:35.431Z,3.10
2018-09-11T09:58:08.871Z,2.73
2018-09-11T10:00:42.060Z,3.20
2018-09-11T10:03:09.860Z,3.63
2018-09-11T10:05:37.595Z,3.67
2018-09-11T10:08:05.582Z,3.30
2018-09-11T10:10:33.283Z,3.60
2018-09-11T10:13:00.934Z,3.33
2018-09-11T10:15:28.602Z,3.07
2018-09-11T10:17:56.309Z,3.17
2018-09-11T10:20:24.024Z,2.93
2018-09-11T10:22:51.737Z,3.17
2018-09-11T10:25:19.453Z,2.93
2018-09-11T10:27:47.130Z,1.83
2018-09-11T10:30:14.830Z,3.40
2018-09-11T10:32:42.533Z,3.23
2018-09-11T10:35:10.244Z,2.90
2018-09-11T10:37:37.936Z,3.43
2018-09-11T10:40:05.684Z,3.17
2018-09-11T10:42:33.394Z,2.73
2018-09-11T10:45:01.139Z,2.87
2018-09-11T10:47:28.855Z,3.43
2018-09-11T10:49:56.602Z,3.03
2018-09-11T10:52:24.321Z,2.70
2018-09-11T10:54:52.037Z,3.37
2018-09-11T10:57:19.722Z,3.30
2018-09-11T10:59:47.395Z,3.07
2018-09-11T11:02:15.107Z,2.70
2018-09-11T11:04:42.910Z,2.93
2018-09-11T11:07:11.499Z,3.23
2018-09-11T11:09:39.236Z,3.33
2018-09-11T11:12:06.967Z,2.80
2018-09-11T11:14:34.719Z,3.07
2018-09-11T11:17:02.522Z,3.40
2018-09-11T11:19:30.230Z,3.03
2018-09-11T11:21:57.914Z,3.33
2018-09-11T11:24:25.601Z,3.23
2018-09-11T11:26:53.422Z,3.37
2018-09-11T11:29:21.087Z,2.83
2018-09-11T11:31:48.806Z,3.17
2018-09-11T11:34:16.535Z,2.97
2018-09-11T11:36:44.315Z,2.83
2018-09-11T11:39:12.282Z,2.83
2018-09-11T11:41:40.046Z,3.17
2018-09-11T11:44:07.896Z,2.83
2018-09-11T11:46:35.655Z,3.17
2018-09-11T11:49:03.358Z,2.90
2018-09-11T11:51:31.038Z,2.87
2018-09-11T11:53:58.745Z,3.03
2018-09-11T11:56:26.420Z,2.73
2018-09-11T11:58:54.085Z,2.70
2018-09-11T12:01:21.819Z,2.43
2018-09-11T12:03:49.466Z,2.70
2018-09-11T12:06:17.154Z,2.97
2018-09-11T12:08:44.854Z,2.87
2018-09-11T12:11:12.550Z,2.90
2018-09-11T12:13:40.262Z,2.60
2018-09-11T12:16:08.029Z,2.47
2018-09-11T12:18:35.691Z,2.90
2018-09-11T12:21:03.392Z,2.40
2018-09-11T12:23:31.065Z,2.77
2018-09-11T12:25:58.758Z,2.40
2018-09-11T12:28:26.480Z,2.60
2018-09-11T12:30:54.244Z,2.53
2018-09-11T12:33:21.901Z,2.40
2018-09-11T12:35:49.609Z,2.47
2018-09-11T12:38:17.385Z,2.53
2018-09-11T12:40:45.568Z,2.93
2018-09-11T12:43:13.286Z,2.60
2018-09-11T12:45:41.025Z,3.07
2018-09-11T12:48:09.251Z,2.20
2018-09-11T12:50:36.493Z,3.27
2018-09-11T12:53:04.222Z,2.00
2018-09-11T12:55:31.893Z,3.17
2018-09-11T12:57:59.562Z,3.00
2018-09-11T13:00:27.298Z,2.60
2018-09-11T13:02:54.972Z,3.10
2018-09-11T13:05:22.669Z,2.97
2018-09-11T13:07:50.369Z,2.80
2018-09-11T13:10:18.041Z,3.33
2018-09-11T13:12:45.752Z,2.80
2018-09-11T13:15:13.568Z,2.93
2018-09-11T13:17:41.165Z,3.03
2018-09-11T13:20:08.889Z,3.03
2018-09-11T13:22:36.649Z,2.70
2018-09-11T13:25:04.388Z,3.23
2018-09-11T13:27:32.149Z,3.00
2018-09-11T13:29:59.885Z,3.23
2018-09-11T13:32:27.660Z,3.00
2018-09-11T13:34:55.342Z,2.57
2018-09-11T13:37:23.081Z,3.10
2018-09-11T13:39:50.758Z,3.00
2018-09-11T13:42:18.448Z,2.80
2018-09-11T13:44:46.149Z,2.83
2018-09-11T13:47:13.908Z,2.87
2018-09-11T13:49:41.586Z,3.03
2018-09-11T13:52:09.319Z,2.47
2018-09-11T13:54:37.025Z,2.70
2018-09-11T13:57:04.730Z,2.73
2018-09-11T13:59:32.435Z,2.60
2018-09-11T14:02:00.153Z,3.30
2018-09-11T14:04:27.893Z,2.93
2018-09-11T14:06:55.634Z,2.70
2018-09-11T14:09:23.318Z,2.77
2018-09-11T14:11:51.071Z,2.67
2018-09-11T14:14:18.810Z,2.67
2018-09-11T14:16:46.549Z,3.00
2018-09-11T14:19:14.269Z,2.27
2018-09-11T14:21:42.016Z,2.47
2018-09-11T14:24:09.762Z,2.13
2018-09-11T14:26:37.472Z,2.40
2018-09-11T14:29:05.205Z,2.60
2018-09-11T14:31:32.936Z,2.87
2018-09-11T14:34:00.741Z,2.63
2018-09-11T14:36:28.521Z,2.30
2018-09-11T14:38:56.206Z,2.37
2018-09-11T14:41:23.906Z,2.63
2018-09-11T14:43:51.636Z,2.10
2018-09-11T14:46:19.360Z,2.40
2018-09-11T14:48:47.042Z,2.10
2018-09-11T14:51:14.726Z,2.00
2018-09-11T14:53:42.465Z,2.40
2018-09-11T14:56:10.174Z,1.80
2018-09-11T14:58:37.928Z,1.80
2018-09-11T15:01:05.812Z,2.10
2018-09-11T15:03:33.540Z,1.73
2018-09-11T15:06:01.284Z,2.17
2018-09-11T15:08:28.994Z,1.80
2018-09-11T15:10:56.725Z,1.77
2018-09-11T15:13:24.424Z,2.50
2018-09-11T15:15:52.255Z,2.00
2018-09-11T15:18:19.985Z,1.63
2018-09-11T15:20:47.701Z,1.70
2018-09-11T15:23:15.396Z,1.70
2018-09-11T15:25:43.089Z,1.90
2018-09-11T15:28:10.842Z,2.00
2018-09-11T15:30:38.535Z,2.23
2018-09-11T15:33:06.739Z,1.97
2018-09-11T15:35:34.475Z,1.90
2018-09-11T15:38:02.196Z,1.70
2018-09-11T15:40:29.902Z,1.80
2018-09-11T15:42:57.589Z,2.07
2018-09-11T15:45:25.328Z,1.80
2018-09-11T15:47:53.009Z,2.00
2018-09-11T15:50:20.775Z,1.80
2018-09-11T15:52:48.535Z,2.20
2018-09-11T15:55:16.254Z,2.60
2018-09-11T15:57:44.017Z,2.20
2018-09-11T16:00:11.680Z,2.60
2018-09-11T16:02:39.386Z,2.37
2018-09-11T16:05:07.148Z,2.27
2018-09-11T16:07:34.848Z,2.13
2018-09-11T16:10:02.570Z,2.23
2018-09-11T16:12:30.405Z,2.33
2018-09-11T16:14:58.189Z,2.27
2018-09-11T16:17:25.878Z,2.40
2018-09-11T16:19:53.629Z,2.63
2018-09-11T16:22:21.323Z,2.50
2018-09-11T16:24:49.025Z,2.70
2018-09-11T16:27:16.736Z,3.30
2018-09-11T16:29:44.418Z,2.67
2018-09-11T16:32:12.134Z,3.13
2018-09-11T16:34:39.909Z,2.80
2018-09-11T16:37:07.645Z,3.23
2018-09-11T16:39:35.367Z,3.07
2018-09-11T16:42:03.189Z,3.07
2018-09-11T16:44:30.885Z,3.00
2018-09-11T16:46:58.642Z,3.30
2018-09-11T16:49:26.356Z,3.03
2018-09-11T16:51:54.172Z,3.00
2018-09-11T16:54:21.863Z,2.90
2018-09-11T16:56:49.630Z,3.20
2018-09-11T16:59:17.309Z,3.03
2018-09-11T17:01:44.973Z,3.13
2018-09-11T17:04:12.706Z,3.07
2018-09-11T17:06:40.395Z,3.13
2018-09-11T17:09:08.853Z,2.80
2018-09-11T17:11:36.604Z,3.77
2018-09-11T17:14:04.369Z,2.73
2018-09-11T17:16:32.087Z,3.20
2018-09-11T17:18:59.803Z,3.40
2018-09-11T17:21:27.494Z,3.20
2018-09-11T17:23:55.225Z,3.03
2018-09-11T17:26:22.957Z,3.00
2018-09-11T17:28:51.108Z,3.40
2018-09-11T17:31:18.827Z,3.03
2018-09-11T17:33:46.694Z,3.00
2018-09-11T17:36:14.434Z,2.87
2018-09-11T17:38:42.190Z,2.83
2018-09-11T17:41:09.920Z,2.53
2018-09-11T17:43:37.626Z,2.73
2018-09-11T17:46:05.338Z,2.37
2018-09-11T17:48:33.111Z,2.70
2018-09-11T17:51:00.825Z,2.30
2018-09-11T17:53:28.577Z,2.27
2018-09-11T17:55:56.297Z,2.60
2018-09-11T17:58:24.028Z,2.50
2018-09-11T18:00:51.768Z,2.10
2018-09-11T18:03:19.509Z,2.70
2018-09-11T18:05:47.266Z,2.43
2018-09-11T18:08:15.033Z,2.40
2018-09-11T18:10:42.788Z,2.60
2018-09-11T18:13:10.551Z,2.77
2018-09-11T18:15:38.301Z,3.63
2018-09-11T18:18:06.022Z,3.03
2018-09-11T18:20:33.741Z,2.90
2018-09-11T18:23:01.395Z,2.53
2018-09-11T18:25:29.130Z,2.70
2018-09-11T18:27:56.842Z,2.73
2018-09-11T18:30:24.622Z,3.07
2018-09-11T18:32:52.397Z,2.80
2018-09-11T18:37:56.817Z,2.60
2018-09-11T18:40:24.523Z,2.97
2018-09-11T18:42:52.218Z,2.87
2018-09-11T18:45:20.046Z,2.30
2018-09-11T18:47:47.750Z,2.37
2018-09-11T18:50:15.444Z,2.40
2018-09-11T18:52:43.226Z,5.47
2018-09-11T18:55:10.958Z,2.77
2018-09-11T18:57:38.710Z,2.80
2018-09-11T19:00:06.737Z,2.00
2018-09-11T19:02:34.546Z,2.60
2018-09-11T19:05:02.247Z,2.60
2018-09-11T19:07:30.001Z,2.20
2018-09-11T19:09:57.670Z,1.90
2018-09-11T19:12:25.416Z,2.23
2018-09-11T19:14:53.117Z,1.90
2018-09-11T19:17:20.839Z,2.00
2018-09-11T19:19:48.564Z,2.00
2018-09-11T19:22:16.263Z,2.67
2018-09-11T19:24:44.255Z,2.13
2018-09-11T19:27:11.967Z,2.40
2018-09-11T19:29:39.732Z,2.43
2018-09-11T19:32:07.433Z,2.20
2018-09-11T19:34:35.204Z,2.23
2018-09-11T19:37:02.921Z,2.30
2018-09-11T19:39:30.621Z,2.03
2018-09-11T19:41:58.314Z,2.47
2018-09-11T19:44:26.084Z,2.47
2018-09-11T19:46:53.737Z,2.33
2018-09-11T19:49:21.428Z,2.90
2018-09-11T19:51:49.140Z,2.60
2018-09-11T19:54:16.830Z,2.80
2018-09-11T19:56:44.477Z,2.53
2018-09-11T19:59:12.209Z,2.87
2018-09-11T20:01:39.892Z,2.83
2018-09-11T20:04:07.564Z,2.80
2018-09-11T20:06:35.286Z,2.73
2018-09-11T20:09:03.495Z,2.70
2018-09-11T20:11:31.173Z,2.80
2018-09-11T20:13:58.882Z,2.53
2018-09-11T20:16:26.877Z,2.70
2018-09-11T20:18:54.655Z,2.40
2018-09-11T20:21:22.366Z,2.40
2018-09-11T20:23:50.075Z,2.87
2018-09-11T20:26:17.750Z,2.73
2018-09-11T20:28:45.450Z,2.67
2018-09-11T20:31:13.474Z,2.43
2018-09-11T20:33:41.535Z,2.83
2018-09-11T20:36:09.254Z,2.60
2018-09-11T20:38:37.007Z,2.47
2018-09-11T20:41:04.735Z,2.47
2018-09-11T20:43:32.546Z,2.23
2018-09-11T20:46:00.215Z,2.50
2018-09-11T20:48:27.971Z,2.40
2018-09-11T20:50:55.737Z,2.60
2018-09-11T20:53:23.424Z,2.63
2018-09-11T20:55:51.223Z,2.63
2018-09-11T20:58:18.958Z,2.57
2018-09-11T21:00:46.610Z,2.60
2018-09-11T21:03:14.300Z,2.47
2018-09-11T21:05:42.037Z,2.23
2018-09-11T21:08:09.088Z,2.40
2018-09-11T21:10:36.789Z,2.60
2018-09-11T21:13:04.593Z,2.13
2018-09-11T21:15:32.334Z,2.80
2018-09-11T21:18:00.126Z,2.43
2018-09-11T21:20:27.909Z,3.20
2018-09-11T21:22:55.732Z,2.40
2018-09-11T21:25:23.475Z,2.47
2018-09-11T21:27:51.293Z,2.50
2018-09-11T21:30:19.050Z,2.93
2018-09-11T21:32:46.764Z,2.83
2018-09-11T21:35:14.500Z,2.90
2018-09-11T21:37:42.191Z,2.87
2018-09-11T21:40:09.904Z,2.70
2018-09-11T21:42:37.637Z,2.67
2018-09-11T21:45:05.423Z,2.87
2018-09-11T21:47:33.126Z,2.67
2018-09-11T21:50:00.900Z,2.57
2018-09-11T21:52:28.582Z,2.50
2018-09-11T21:54:56.278Z,2.90
2018-09-11T21:57:24.071Z,2.60
2018-09-11T21:59:51.788Z,2.93
2018-09-11T22:02:19.497Z,3.20
2018-09-11T22:04:47.231Z,2.63
2018-09-11T22:07:14.927Z,3.13
2018-09-11T22:09:42.596Z,2.90
2018-09-11T22:12:10.345Z,2.63
2018-09-11T22:14:38.034Z,2.80
2018-09-11T22:17:06.154Z,3.10
2018-09-11T22:19:33.858Z,2.93
2018-09-11T22:22:01.568Z,3.20
2018-09-11T22:24:29.262Z,3.40
2018-09-11T22:26:56.980Z,3.07
2018-09-11T22:29:24.646Z,2.53
2018-09-11T22:31:52.319Z,3.03
2018-09-11T22:34:20.140Z,3.33
2018-09-11T22:36:47.827Z,2.77
2018-09-11T22:39:15.494Z,2.77
2018-09-11T22:41:43.229Z,3.00
2018-09-11T22:44:10.897Z,2.80
2018-09-11T22:46:38.629Z,3.27
2018-09-11T22:49:06.377Z,3.03
2018-09-11T22:51:34.045Z,2.70
2018-09-11T22:54:01.750Z,2.80
2018-09-11T22:56:29.492Z,2.80
2018-09-11T22:58:57.153Z,3.07
2018-09-11T23:01:24.829Z,2.93
2018-09-11T23:03:52.571Z,2.77
2018-09-11T23:06:20.382Z,3.03
2018-09-11T23:08:48.070Z,3.23
2018-09-11T23:11:15.790Z,2.60
2018-09-11T23:13:43.467Z,2.97
2018-09-11T23:16:11.160Z,3.00
2018-09-11T23:18:38.895Z,3.17
2018-09-11T23:21:06.585Z,3.00
2018-09-11T23:23:34.259Z,2.83
2018-09-11T23:26:01.961Z,2.80
2018-09-11T23:28:29.653Z,3.50
2018-09-11T23:30:57.313Z,2.83
2018-09-11T23:33:25.039Z,2.90
2018-09-11T23:35:52.733Z,2.57
2018-09-11T23:38:20.418Z,2.50
2018-09-11T23:40:48.118Z,2.50
2018-09-11T23:43:15.839Z,2.83
2018-09-11T23:45:43.510Z,3.40
2018-09-11T23:48:11.252Z,3.27
2018-09-11T23:50:38.924Z,3.43
2018-09-11T23:53:06.656Z,3.60
2018-09-11T23:55:34.390Z,3.13
2018-09-11T23:58:02.067Z,3.17
